createdAt,value
2023-07-04T00:01:26.358Z,100451.97
2023-07-04T00:04:31.198Z,100448.53
2023-07-04T00:07:33.950Z,100455.50
2023-07-04T00:10:38.957Z,100452.28
2023-07-04T00:13:42.343Z,100451.72
2023-07-04T00:16:46.051Z,100451.44
2023-07-04T00:19:49.328Z,100452.50
2023-07-04T00:22:52.106Z,100450.88
2023-07-04T00:25:56.298Z,100446.00
2023-07-04T00:28:59.247Z,100445.72
2023-07-04T00:32:02.960Z,100443.25
2023-07-04T00:35:07.354Z,100435.44
2023-07-04T00:38:10.906Z,100436.22
2023-07-04T00:41:22.260Z,100447.78
2023-07-04T00:44:31.840Z,100432.16
2023-07-04T00:47:44.663Z,100433.44
2023-07-04T00:50:51.266Z,100425.09
2023-07-04T00:53:56.238Z,100432.38
2023-07-04T00:57:04.216Z,100432.38
2023-07-04T01:00:24.570Z,100433.19
2023-07-04T01:03:27.380Z,100436.16
2023-07-04T01:06:40.317Z,100436.16
2023-07-04T01:09:51.324Z,100447.25
2023-07-04T01:12:54.088Z,100449.38
2023-07-04T01:15:59.147Z,100453.69
2023-07-04T01:19:03.332Z,100454.44
2023-07-04T01:22:16.773Z,100444.41
2023-07-04T01:25:25.337Z,100449.75
2023-07-04T01:28:30.883Z,100447.09
2023-07-04T01:31:37.053Z,100442.25
2023-07-04T01:34:39.860Z,100458.44
2023-07-04T01:37:43.002Z,100457.94
2023-07-04T01:40:48.156Z,100469.53
2023-07-04T01:43:57.946Z,100471.69
2023-07-04T01:47:01.169Z,100466.28
2023-07-04T01:50:06.162Z,100471.72
2023-07-04T01:53:09.213Z,100467.13
2023-07-04T01:56:12.101Z,100474.69
2023-07-04T01:59:15.608Z,100469.88
2023-07-04T02:02:19.334Z,100471.78
2023-07-04T02:05:22.276Z,100469.34
2023-07-04T02:08:25.217Z,100460.50
2023-07-04T02:11:28.328Z,100465.09
2023-07-04T02:14:31.415Z,100466.69
2023-07-04T02:17:34.705Z,100468.84
2023-07-04T02:20:37.499Z,100472.91
2023-07-04T02:23:40.225Z,100469.81
2023-07-04T02:26:44.516Z,100474.94
2023-07-04T02:29:50.426Z,100467.91
2023-07-04T02:32:53.190Z,100470.88
2023-07-04T02:35:56.977Z,100485.66
2023-07-04T02:38:59.973Z,100487.78
2023-07-04T02:42:02.701Z,100489.41
2023-07-04T02:45:08.064Z,100496.19
2023-07-04T02:48:11.835Z,100488.09
2023-07-04T02:51:14.747Z,100485.88
2023-07-04T02:54:17.570Z,100495.84
2023-07-04T02:57:20.661Z,100503.13
2023-07-04T03:00:24.033Z,100505.00
2023-07-04T03:03:29.281Z,100508.75
2023-07-04T03:06:36.414Z,100511.47
2023-07-04T03:09:39.560Z,100512.88
2023-07-04T03:12:43.016Z,100510.75
2023-07-04T03:15:45.879Z,100514.50
2023-07-04T03:18:48.690Z,100514.56
2023-07-04T03:24:28.805Z,100508.69
2023-07-04T03:27:32.492Z,100514.59
2023-07-04T03:30:36.020Z,100504.63
2023-07-04T03:33:44.036Z,100492.50
2023-07-04T03:36:46.907Z,100490.38
2023-07-04T03:39:49.631Z,100494.72
2023-07-04T03:42:52.534Z,100489.34
2023-07-04T03:45:55.473Z,100503.38
2023-07-04T03:48:58.254Z,100496.06
2023-07-04T03:52:01.125Z,100490.72
2023-07-04T03:55:04.554Z,100495.56
2023-07-04T03:58:07.296Z,100501.78
2023-07-04T04:01:10.031Z,100501.81
2023-07-04T04:04:13.030Z,100520.13
2023-07-04T04:07:16.334Z,100524.69
2023-07-04T04:10:19.816Z,100523.88
2023-07-04T04:13:22.558Z,100532.22
2023-07-04T04:16:25.555Z,100540.56
2023-07-04T04:19:28.808Z,100537.00
2023-07-04T04:22:31.912Z,100538.34
2023-07-04T04:25:39.709Z,100537.72
2023-07-04T04:28:42.564Z,100539.34
2023-07-04T04:31:48.574Z,100547.31
2023-07-04T04:34:51.296Z,100539.56
2023-07-04T04:37:54.038Z,100551.03
2023-07-04T04:41:06.210Z,100547.94
2023-07-04T04:44:10.194Z,100548.66
2023-07-04T04:47:13.884Z,100544.84
2023-07-04T04:50:17.437Z,100558.22
2023-07-04T04:53:20.274Z,100562.03
2023-07-04T04:56:23.010Z,100552.09
2023-07-04T04:59:25.701Z,100557.81
2023-07-04T05:02:31.664Z,100565.06
2023-07-04T05:05:34.470Z,100573.25
2023-07-04T05:08:37.646Z,100580.22
2023-07-04T05:11:40.460Z,100584.31
2023-07-04T05:14:43.279Z,100592.66
2023-07-04T05:17:46.055Z,100590.16
2023-07-04T05:20:48.795Z,100588.81
2023-07-04T05:23:53.902Z,100598.28
2023-07-04T05:26:56.770Z,100601.16
2023-07-04T05:29:59.498Z,100596.81
2023-07-04T05:33:02.264Z,100602.00
2023-07-04T05:36:12.428Z,100601.06
2023-07-04T05:39:15.106Z,100598.38
2023-07-04T05:42:17.886Z,100598.00
2023-07-04T05:45:20.561Z,100593.63
2023-07-04T05:48:23.492Z,100594.34
2023-07-04T05:51:27.587Z,100600.25
2023-07-04T05:54:30.325Z,100602.88
2023-07-04T05:57:33.210Z,100606.66
2023-07-04T06:00:36.447Z,100615.31
2023-07-04T06:03:40.455Z,100618.50
2023-07-04T06:06:51.814Z,100619.47
2023-07-04T06:09:54.571Z,100615.94
2023-07-04T06:12:57.444Z,100617.03
2023-07-04T06:16:02.891Z,100624.88
2023-07-04T06:19:05.747Z,100619.84
2023-07-04T06:22:08.615Z,100629.28
2023-07-04T06:25:11.535Z,100645.28
2023-07-04T06:28:14.243Z,100661.75
2023-07-04T06:31:18.728Z,100659.03
2023-07-04T06:34:21.550Z,100656.91
2023-07-04T06:37:24.390Z,100665.34
2023-07-04T06:40:27.107Z,100667.38
2023-07-04T06:43:32.168Z,100666.00
2023-07-04T06:46:36.127Z,100655.38
2023-07-04T06:49:39.069Z,100662.84
2023-07-04T06:52:41.811Z,100656.47
2023-07-04T06:55:44.685Z,100665.00
2023-07-04T06:58:54.220Z,100648.19
2023-07-04T07:01:57.310Z,100650.38
2023-07-04T07:05:00.680Z,100641.47
2023-07-04T07:08:03.623Z,100631.69
2023-07-04T07:11:08.925Z,100635.59
2023-07-04T07:14:11.734Z,100630.19
2023-07-04T07:17:14.524Z,100634.88
2023-07-04T07:20:17.470Z,100627.06
2023-07-04T07:23:20.287Z,100636.75
2023-07-04T07:26:24.029Z,100638.63
2023-07-04T07:29:27.578Z,100642.81
2023-07-04T07:32:30.409Z,100646.72
2023-07-04T07:35:33.267Z,100645.69
2023-07-04T07:38:36.023Z,100647.72
2023-07-04T07:41:42.481Z,100660.84
2023-07-04T07:44:45.287Z,100656.63
2023-07-04T07:47:51.821Z,100664.34
2023-07-04T07:50:55.287Z,100657.50
2023-07-04T07:54:01.380Z,100661.97
2023-07-04T07:57:04.364Z,100657.66
2023-07-04T08:00:08.677Z,100657.28
2023-07-04T08:03:15.592Z,100651.25
2023-07-04T08:06:30.807Z,100670.69
2023-07-04T08:09:33.689Z,100672.00
2023-07-04T08:12:36.798Z,100673.63
2023-07-04T08:15:39.623Z,100672.06
2023-07-04T08:18:43.328Z,100670.28
2023-07-04T08:21:47.983Z,100667.56
2023-07-04T08:24:50.713Z,100661.91
2023-07-04T08:27:54.358Z,100666.59
2023-07-04T08:31:05.827Z,100659.63
2023-07-04T08:34:12.272Z,100660.19
2023-07-04T08:37:16.015Z,100655.53
2023-07-04T08:40:19.628Z,100663.84
2023-07-04T08:43:49.938Z,100677.47
2023-07-04T08:46:56.478Z,100685.25
2023-07-04T08:50:19.491Z,100703.59
2023-07-04T08:53:25.966Z,100709.94
2023-07-04T08:56:34.802Z,100722.31
2023-07-04T08:59:44.407Z,100716.66
2023-07-04T09:03:09.926Z,100707.72
2023-07-04T09:06:29.333Z,100704.06
2023-07-04T09:09:39.872Z,100704.72
2023-07-04T09:12:44.263Z,100710.25
2023-07-04T09:15:48.810Z,100712.13
2023-07-04T09:19:06.804Z,100717.69
2023-07-04T09:22:10.363Z,100706.53
2023-07-04T09:25:13.287Z,100702.06
2023-07-04T09:28:16.438Z,100698.63
2023-07-04T09:31:31.045Z,100697.13
2023-07-04T09:34:38.004Z,100694.31
2023-07-04T09:37:59.117Z,100680.53
2023-07-04T09:41:03.438Z,100690.75
2023-07-04T09:44:17.703Z,100690.81
2023-07-04T09:47:29.708Z,100685.22
2023-07-04T09:50:37.707Z,100689.22
2023-07-04T09:53:40.527Z,100694.84
2023-07-04T09:56:44.268Z,100698.25
2023-07-04T09:59:47.358Z,100701.78
2023-07-04T10:02:54.126Z,100717.00
2023-07-04T10:05:57.222Z,100716.28
2023-07-04T10:09:03.390Z,100728.66
2023-07-04T10:12:14.302Z,100733.53
2023-07-04T10:15:36.059Z,100743.25
2023-07-04T10:18:40.412Z,100741.94
2023-07-04T10:21:44.209Z,100751.91
2023-07-04T10:24:47.097Z,100754.31
2023-07-04T10:27:57.082Z,100742.22
2023-07-04T10:31:12.820Z,100725.75
2023-07-04T10:34:20.009Z,100723.06
2023-07-04T10:37:25.891Z,100740.03
2023-07-04T10:41:03.493Z,100751.59
2023-07-04T10:44:35.209Z,100756.75
2023-07-04T10:47:40.646Z,100760.78
2023-07-04T10:51:02.636Z,100755.41
2023-07-04T10:54:09.290Z,100760.25
2023-07-04T10:57:47.402Z,100763.50
2023-07-04T11:01:14.134Z,100763.25
2023-07-04T11:04:33.019Z,100765.41
2023-07-04T11:07:40.877Z,100761.91
2023-07-04T11:10:46.493Z,100753.25
2023-07-04T11:13:52.560Z,100751.63
2023-07-04T11:16:59.186Z,100744.34
2023-07-04T11:20:15.190Z,100740.84
2023-07-04T11:23:20.704Z,100741.91
2023-07-04T11:26:47.605Z,100738.16
2023-07-04T11:30:04.191Z,100732.22
2023-07-04T11:33:08.986Z,100732.94
2023-07-04T11:36:30.496Z,100728.88
2023-07-04T11:39:37.768Z,100722.44
2023-07-04T11:42:48.018Z,100722.69
2023-07-04T11:45:51.024Z,100727.13
2023-07-04T11:48:57.333Z,100724.97
2023-07-04T11:52:05.527Z,100718.38
2023-07-04T11:55:16.384Z,100727.66
2023-07-04T11:58:20.223Z,100731.19
2023-07-04T12:01:23.093Z,100735.31
2023-07-04T12:04:47.815Z,100727.53
2023-07-04T12:07:52.884Z,100729.91
2023-07-04T12:11:05.753Z,100732.69
2023-07-04T12:14:11.240Z,100729.03
2023-07-04T12:17:16.020Z,100739.22
2023-07-04T12:20:22.166Z,100733.00
2023-07-04T12:23:26.054Z,100738.66
2023-07-04T12:26:29.883Z,100737.97
2023-07-04T12:32:41.286Z,100733.91
2023-07-04T12:35:47.942Z,100743.91
2023-07-04T12:38:54.557Z,100741.13
2023-07-04T12:41:57.506Z,100737.28
2023-07-04T12:45:00.270Z,100742.44
2023-07-04T12:51:15.388Z,100743.56
2023-07-04T12:54:18.543Z,100750.03
2023-07-04T12:57:26.407Z,100743.63
2023-07-04T13:00:52.718Z,100746.41
2023-07-04T13:04:00.734Z,100745.34
2023-07-04T13:07:03.860Z,100725.06
2023-07-04T13:10:07.130Z,100724.50
2023-07-04T13:13:39.015Z,100706.97
2023-07-04T13:16:41.953Z,100716.16
2023-07-04T13:19:45.305Z,100715.66
2023-07-04T13:24:57.823Z,100699.97
2023-07-04T13:26:20.291Z,100694.22
2023-07-04T13:35:47.041Z,100677.94
2023-07-04T13:39:49.976Z,100675.97
2023-07-04T13:42:18.275Z,100668.22
2023-07-04T13:45:21.357Z,100660.44
2023-07-04T13:48:26.755Z,100672.94
2023-07-04T13:51:30.155Z,100665.81
2023-07-04T13:54:32.955Z,100677.13
2023-07-04T13:57:36.484Z,100673.47
2023-07-04T14:03:46.482Z,100676.53
2023-07-04T14:07:10.143Z,100676.06
2023-07-04T14:10:27.794Z,100674.03
2023-07-04T14:13:36.814Z,100663.38
2023-07-04T14:17:12.242Z,100666.97
2023-07-04T14:20:04.232Z,100668.97
2023-07-04T14:23:07.156Z,100676.00
2023-07-04T14:26:22.203Z,100682.31
2023-07-04T14:29:25.769Z,100674.28
2023-07-04T14:32:28.789Z,100678.25
2023-07-04T14:35:31.618Z,100676.97
2023-07-04T14:38:35.884Z,100680.44
2023-07-04T14:44:46.163Z,100674.97
2023-07-04T14:47:49.086Z,100678.34
2023-07-04T14:51:09.549Z,100668.78
2023-07-04T14:54:15.827Z,100662.66
2023-07-04T14:57:19.114Z,100664.94
2023-07-04T15:00:24.239Z,100665.19
2023-07-04T15:03:31.606Z,100657.34
2023-07-04T15:06:34.514Z,100655.03
2023-07-04T15:09:38.750Z,100658.72
2023-07-04T15:12:41.473Z,100649.56
2023-07-04T15:15:44.367Z,100648.28
2023-07-04T15:18:47.276Z,100647.91
2023-07-04T15:21:50.360Z,100649.00
2023-07-04T15:24:53.035Z,100644.31
2023-07-04T15:27:55.744Z,100641.69
2023-07-04T15:30:58.644Z,100638.19
2023-07-04T15:34:01.502Z,100643.28
2023-07-04T15:37:08.563Z,100645.50
2023-07-04T15:40:12.169Z,100638.25
2023-07-04T15:43:14.930Z,100635.53
2023-07-04T15:46:18.342Z,100635.13
2023-07-04T15:49:21.082Z,100631.50
2023-07-04T15:52:26.152Z,100640.41
2023-07-04T15:55:31.695Z,100641.38
2023-07-04T15:58:34.542Z,100637.97
2023-07-04T16:01:37.378Z,100636.84
2023-07-04T16:04:40.178Z,100632.94
2023-07-04T16:07:42.937Z,100631.06
2023-07-04T16:10:48.386Z,100636.03
2023-07-04T16:13:54.254Z,100629.16
2023-07-04T16:16:57.018Z,100635.66
2023-07-04T16:19:59.923Z,100632.16
2023-07-04T16:23:02.720Z,100627.69
2023-07-04T16:26:05.489Z,100633.06
2023-07-04T16:29:08.315Z,100628.16
2023-07-04T16:32:11.190Z,100632.41
2023-07-04T16:35:13.930Z,100630.31
2023-07-04T16:38:16.781Z,100632.41
2023-07-04T16:41:19.669Z,100630.72
2023-07-04T16:44:24.489Z,100631.19
2023-07-04T16:47:28.458Z,100628.00
2023-07-04T16:50:33.155Z,100625.06
2023-07-04T16:53:39.467Z,100635.00
2023-07-04T16:56:42.218Z,100638.53
2023-07-04T16:59:45.416Z,100638.09
2023-07-04T17:02:48.234Z,100637.06
2023-07-04T17:05:51.370Z,100647.47
2023-07-04T17:08:54.696Z,100641.00
2023-07-04T17:11:59.701Z,100632.13
2023-07-04T17:15:02.466Z,100630.13
2023-07-04T17:18:05.281Z,100628.72
2023-07-04T17:21:09.288Z,100623.47
2023-07-04T17:24:12.194Z,100617.03
2023-07-04T17:27:14.956Z,100608.75
2023-07-04T17:30:18.701Z,100601.13
2023-07-04T17:33:21.540Z,100607.28
2023-07-04T17:36:24.889Z,100607.22
2023-07-04T17:39:27.601Z,100604.94
2023-07-04T17:42:30.852Z,100611.38
2023-07-04T17:45:33.630Z,100612.09
2023-07-04T17:48:36.665Z,100614.00
2023-07-04T17:51:39.519Z,100601.72
2023-07-04T17:54:42.831Z,100604.50
2023-07-04T17:57:45.603Z,100603.91
2023-07-04T18:00:48.288Z,100610.47
2023-07-04T18:03:52.655Z,100617.56
2023-07-04T18:06:55.656Z,100625.19
2023-07-04T18:09:58.586Z,100612.06
2023-07-04T18:13:01.383Z,100617.56
2023-07-04T18:16:04.731Z,100622.19
2023-07-04T18:19:08.065Z,100620.63
2023-07-04T18:22:11.849Z,100629.84
2023-07-04T18:25:14.805Z,100626.94
2023-07-04T18:28:20.734Z,100623.47
2023-07-04T18:31:26.277Z,100628.94
2023-07-04T18:34:29.468Z,100634.09
2023-07-04T18:37:32.191Z,100629.28
2023-07-04T18:40:40.786Z,100622.81
2023-07-04T18:43:44.423Z,100630.97
2023-07-04T18:46:47.902Z,100635.03
2023-07-04T18:49:51.470Z,100638.81
2023-07-04T18:52:54.481Z,100649.63
2023-07-04T18:55:59.101Z,100647.28
2023-07-04T18:59:01.905Z,100642.19
2023-07-04T19:02:04.940Z,100647.84
2023-07-04T19:05:08.250Z,100662.97
2023-07-04T19:08:11.286Z,100663.25
2023-07-04T19:11:16.079Z,100677.00
2023-07-04T19:14:21.230Z,100677.25
2023-07-04T19:17:24.223Z,100682.63
2023-07-04T19:20:27.046Z,100690.97
2023-07-04T19:23:31.015Z,100680.22
2023-07-04T19:26:36.183Z,100686.69
2023-07-04T19:29:40.577Z,100691.53
2023-07-04T19:32:43.299Z,100695.88
2023-07-04T19:35:46.271Z,100705.00
2023-07-04T19:38:49.943Z,100698.31
2023-07-04T19:41:53.012Z,100697.50
2023-07-04T19:44:55.903Z,100698.81
2023-07-04T19:47:59.952Z,100699.09
2023-07-04T19:51:08.717Z,100709.31
2023-07-04T19:54:11.593Z,100712.03
2023-07-04T19:57:14.484Z,100714.44
2023-07-04T20:00:17.393Z,100711.47
2023-07-04T20:03:20.580Z,100707.94
2023-07-04T20:06:24.208Z,100713.06
2023-07-04T20:09:27.057Z,100710.13
2023-07-04T20:12:30.030Z,100716.31
2023-07-04T20:15:36.173Z,100709.56
2023-07-04T20:18:39.221Z,100710.13
2023-07-04T20:21:42.333Z,100703.13
2023-07-04T20:24:45.266Z,100709.84
2023-07-04T20:27:48.192Z,100710.16
2023-07-04T20:30:56.763Z,100703.91
2023-07-04T20:34:00.513Z,100705.53
2023-07-04T20:37:05.465Z,100704.19
2023-07-04T20:40:10.205Z,100700.19
2023-07-04T20:43:14.841Z,100703.94
2023-07-04T20:46:17.653Z,100710.16
2023-07-04T20:49:24.399Z,100701.78
2023-07-04T20:52:28.391Z,100708.00
2023-07-04T20:55:31.241Z,100703.13
2023-07-04T20:58:34.097Z,100708.81
2023-07-04T21:01:36.890Z,100709.31
2023-07-04T21:04:39.768Z,100713.66
2023-07-04T21:07:47.820Z,100716.09
2023-07-04T21:10:55.416Z,100716.63
2023-07-04T21:13:58.190Z,100711.47
2023-07-04T21:17:00.943Z,100708.25
2023-07-04T21:20:04.751Z,100715.25
2023-07-04T21:23:07.579Z,100703.38
2023-07-04T21:26:10.659Z,100711.44
2023-07-04T21:29:18.579Z,100711.97
2023-07-04T21:32:21.369Z,100709.03
2023-07-04T21:35:24.183Z,100709.28
2023-07-04T21:38:27.257Z,100707.94
2023-07-04T21:41:30.101Z,100720.06
2023-07-04T21:44:32.783Z,100718.16
2023-07-04T21:47:36.085Z,100718.69
2023-07-04T21:50:40.288Z,100723.00
2023-07-04T21:53:43.158Z,100716.75
2023-07-04T21:56:46.035Z,100711.09
2023-07-04T21:59:48.762Z,100719.16
2023-07-04T22:02:51.550Z,100716.19
2023-07-04T22:06:11.005Z,100720.44
2023-07-04T22:09:18.389Z,100721.50
2023-07-04T22:12:21.185Z,100726.00
2023-07-04T22:15:23.968Z,100729.66
2023-07-04T22:18:27.023Z,100726.41
2023-07-04T22:21:29.783Z,100731.44
2023-07-04T22:24:32.615Z,100729.53
2023-07-04T22:27:35.329Z,100736.44
2023-07-04T22:30:38.084Z,100731.84
2023-07-04T22:33:58.272Z,100734.53
2023-07-04T22:37:01.118Z,100730.94
2023-07-04T22:40:04.357Z,100720.72
2023-07-04T22:43:07.130Z,100726.59
2023-07-04T22:46:09.841Z,100722.81
2023-07-04T22:49:12.544Z,100716.88
2023-07-04T22:52:15.314Z,100719.84
2023-07-04T22:55:18.129Z,100714.22
2023-07-04T22:58:20.826Z,100718.56
2023-07-04T23:01:26.117Z,100722.59
2023-07-04T23:04:28.896Z,100714.22
2023-07-04T23:07:32.422Z,100711.78
2023-07-04T23:10:35.441Z,100712.03
2023-07-04T23:13:38.545Z,100700.44
2023-07-04T23:16:41.288Z,100707.09
2023-07-04T23:19:44.030Z,100711.34
2023-07-04T23:22:46.808Z,100705.69
2023-07-04T23:25:49.639Z,100706.44
2023-07-04T23:28:53.176Z,100699.47
2023-07-04T23:31:55.984Z,100698.63
2023-07-04T23:34:59.343Z,100696.78
2023-07-04T23:38:04.201Z,100707.00
2023-07-04T23:41:07.493Z,100695.97
2023-07-04T23:44:10.182Z,100697.53
2023-07-04T23:47:12.960Z,100695.66
2023-07-04T23:50:15.752Z,100693.44
2023-07-04T23:53:19.036Z,100696.94
2023-07-04T23:56:22.749Z,100699.91
2023-07-04T23:59:25.679Z,100694.03
